Terminal Aerodrome Forecast
Issued by NWS Anchorage, AK

Home | Current Version | Previous Version | Text Only | Print | Product List | Glossary On
Versions: 1 2 3 4 5 6 7 8 9 10 11 12 13 14 15 16 17 18 19 20 21
000
FTAK31 PANC 252325
TAFANC
TAF
PANC 252325Z 2600/2706 16008KT P6SM VCSH BKN070
      TEMPO 2600/2604 16008G15KT
     FM260800 VRB04KT P6SM FEW050 BKN100=

USA.gov is the U.S. government's official web portal to all federal, state and local government web resources and services.